Time;durP1;ratioP1;P1;durP2;ratioP2;P2;SDS_P1;SDS_P2;PMS_P1;PMS_P2;Temp;Humidity;BMP_temperature;BMP_pressure;BME280_temperature;BME280_humidity;BME280_pressure;Samples;Min_cycle;Max_cycle;Signal;HPM_P1;HPM_P2
2021/09/27 00:01:31;;;;;;;0.30;0.30;;;;;;;9.19;89.90;99780.88;4956444;28;20051;-70
2021/09/27 00:03:57;;;;;;;0.30;0.30;;;;;;;9.16;90.21;99781.97;4989043;28;20061;-71
2021/09/27 00:06:23;;;;;;;0.30;0.30;;;;;;;9.21;90.15;99778.88;4974122;28;20047;-69
2021/09/27 00:08:48;;;;;;;0.30;0.30;;;;;;;9.23;89.68;99782.28;4988646;28;20047;-70
2021/09/27 00:11:18;;;;;;;0.30;0.30;;;;;;;9.24;89.89;99789.38;4972350;28;20108;-70
2021/09/27 00:13:47;;;;;;;0.30;0.30;;;;;;;9.24;89.85;99783.97;4972593;28;20054;-71
2021/09/27 00:16:13;;;;;;;0.30;0.30;;;;;;;9.25;89.74;99791.09;4972304;28;20047;-68
2021/09/27 00:18:40;;;;;;;0.30;0.30;;;;;;;9.25;89.49;99793.81;4956259;28;20042;-69
2021/09/27 00:21:13;;;;;;;0.30;0.30;;;;;;;9.23;89.61;99798.47;4972256;28;20082;-68
2021/09/27 00:23:40;;;;;;;0.30;0.30;;;;;;;9.21;89.32;99800.44;4955918;28;20043;-70
2021/09/27 00:26:06;;;;;;;0.30;0.30;;;;;;;9.20;88.92;99800.59;4973830;28;20209;-69
2021/09/27 00:28:33;;;;;;;0.30;0.30;;;;;;;9.20;89.10;99804.13;4973473;28;20473;-69
2021/09/27 00:30:58;;;;;;;0.30;0.30;;;;;;;9.17;89.11;99805.25;4972381;28;20495;-71
2021/09/27 00:33:25;;;;;;;0.30;0.30;;;;;;;9.22;88.96;99812.13;4972232;28;20074;-70
2021/09/27 00:35:51;;;;;;;0.30;0.30;;;;;;;9.23;89.02;99825.44;4988874;28;20046;-71
2021/09/27 00:38:17;;;;;;;0.30;0.30;;;;;;;9.26;89.09;99814.38;4975184;28;20482;-68
2021/09/27 00:40:46;;;;;;;0.30;0.30;;;;;;;9.28;88.63;99823.19;4957368;28;20498;-69
2021/09/27 00:43:12;;;;;;;0.30;0.30;;;;;;;9.27;88.45;99829.56;4955571;28;20042;-69
2021/09/27 00:45:44;;;;;;;0.30;0.30;;;;;;;9.28;88.93;99828.56;4971949;28;20126;-71
2021/09/27 00:48:11;;;;;;;0.30;0.30;;;;;;;9.28;88.91;99820.47;4972580;28;20178;-68
2021/09/27 00:50:42;;;;;;;0.30;0.30;;;;;;;9.20;89.38;99832.97;4973438;28;20046;-69
2021/09/27 00:53:31;;;;;;;0.30;0.30;;;;;;;9.20;89.37;99832.97;4971944;28;20442;-69
2021/09/27 00:55:58;;;;;;;0.30;0.30;;;;;;;9.21;89.10;99835.50;4971754;28;20078;-68
2021/09/27 00:58:25;;;;;;;0.30;0.30;;;;;;;9.15;88.84;99844.16;4971556;28;20137;-69
2021/09/27 01:00:50;;;;;;;0.30;0.30;;;;;;;9.12;88.50;99845.28;4956539;28;20046;-69
2021/09/27 01:03:17;;;;;;;0.30;0.30;;;;;;;9.15;88.95;99846.88;4973915;28;20046;-70
2021/09/27 01:06:02;;;;;;;0.32;0.32;;;;;;;9.12;89.08;99855.22;4971758;28;20046;-69
2021/09/27 01:08:47;;;;;;;0.30;0.30;;;;;;;9.07;89.22;99854.81;4955324;28;20081;-70
2021/09/27 01:11:22;;;;;;;0.30;0.30;;;;;;;9.05;89.15;99859.47;4971046;28;20075;-69
2021/09/27 01:14:05;;;;;;;0.30;0.30;;;;;;;9.07;89.47;99868.28;4973333;28;20137;-69
2021/09/27 01:16:40;;;;;;;0.30;0.30;;;;;;;9.04;89.36;99869.41;4972667;28;20467;-69
2021/09/27 01:19:44;;;;;;;0.30;0.30;;;;;;;9.10;89.31;99867.97;4971385;28;20051;-70
2021/09/27 01:22:40;;;;;;;0.30;0.30;;;;;;;9.12;89.09;99877.66;4972924;28;20046;-69
2021/09/27 01:25:12;;;;;;;0.30;0.30;;;;;;;9.15;88.97;99881.94;4973071;28;20131;-69
2021/09/27 01:28:17;;;;;;;0.30;0.30;;;;;;;9.09;89.02;99880.63;4972673;28;20151;-68
2021/09/27 01:30:56;;;;;;;0.30;0.30;;;;;;;9.06;89.12;99880.03;4951546;28;20047;-69
2021/09/27 01:33:46;;;;;;;0.30;0.30;;;;;;;9.11;89.22;99891.28;4971023;28;20039;-69
2021/09/27 01:36:24;;;;;;;0.30;0.30;;;;;;;9.14;89.28;99891.00;4987865;28;20055;-68
2021/09/27 01:39:10;;;;;;;0.30;0.30;;;;;;;9.15;88.98;99898.97;4973655;28;20163;-68
2021/09/27 01:41:39;;;;;;;0.30;0.30;;;;;;;9.14;88.97;99901.78;4972103;28;20142;-71
2021/09/27 01:44:28;;;;;;;0.30;0.30;;;;;;;9.10;88.61;99906.59;4970855;28;20038;-69
2021/09/27 01:46:59;;;;;;;0.30;0.30;;;;;;;9.07;88.66;99908.75;4964562;28;20058;-78
2021/09/27 01:49:33;;;;;;;0.30;0.30;;;;;;;9.08;88.65;99907.75;4970371;28;20059;-68
2021/09/27 01:52:05;;;;;;;;;;;;;;;9.04;88.62;99915.25;4970877;28;20047;-70
2021/09/27 01:54:46;;;;;;;0.30;0.30;;;;;;;9.05;88.24;99913.41;4970095;28;20409;-67
2021/09/27 01:57:21;;;;;;;0.30;0.30;;;;;;;9.09;88.43;99925.63;4987976;28;20055;-69
2021/09/27 01:59:49;;;;;;;0.30;0.30;;;;;;;9.08;88.65;99923.91;4974160;28;20059;-67
2021/09/27 02:02:21;;;;;;;0.35;0.35;;;;;;;9.08;88.27;99923.91;4972096;28;20042;-67
2021/09/27 02:05:10;;;;;;;0.30;0.30;;;;;;;9.09;88.30;99931.88;4957763;28;20050;-67
2021/09/27 02:07:42;;;;;;;0.30;0.30;;;;;;;9.10;88.22;99933.56;4972102;28;20047;-68
2021/09/27 02:10:13;;;;;;;0.30;0.30;;;;;;;9.02;87.95;99928.00;4971586;28;20507;-72
2021/09/27 02:13:18;;;;;;;0.30;0.30;;;;;;;9.03;88.07;99926.16;4987822;28;20042;-69
2021/09/27 02:15:52;;;;;;;0.30;0.30;;;;;;;8.97;88.21;99937.50;4963565;28;20117;-66
2021/09/27 02:18:48;;;;;;;0.30;0.30;;;;;;;8.96;88.50;99930.38;4986874;28;20047;-67
2021/09/27 02:21:18;;;;;;;0.30;0.30;;;;;;;8.90;88.60;99932.63;4971309;28;20050;-70
2021/09/27 02:23:58;;;;;;;0.30;0.30;;;;;;;8.90;89.10;99940.72;4970181;28;20499;-70
2021/09/27 02:26:23;;;;;;;0.30;0.30;;;;;;;8.88;89.04;99945.38;4986381;28;20263;-67
2021/09/27 02:28:49;;;;;;;0.30;0.30;;;;;;;8.89;88.90;99946.25;4971035;28;20054;-68
2021/09/27 02:31:32;;;;;;;0.30;0.30;;;;;;;8.89;88.82;99947.09;4985868;28;20055;-68
2021/09/27 02:34:06;;;;;;;0.30;0.30;;;;;;;8.89;89.15;99947.09;4969733;28;20055;-68
2021/09/27 02:37:04;;;;;;;0.30;0.30;;;;;;;8.91;89.07;99955.88;4953594;28;20550;-68
2021/09/27 02:39:37;;;;;;;0.30;0.30;;;;;;;8.93;88.82;99959.31;4960946;28;20087;-68
2021/09/27 02:42:17;;;;;;;0.30;0.30;;;;;;;8.91;88.78;99958.59;4969856;28;20069;-68
2021/09/27 02:44:45;;;;;;;0.30;0.30;;;;;;;8.98;88.46;99967.00;4969697;28;20438;-68
2021/09/27 02:47:12;;;;;;;0.30;0.30;;;;;;;8.98;88.73;99966.16;4969702;28;20514;-69
2021/09/27 02:49:45;;;;;;;0.30;0.30;;;;;;;9.00;88.74;99970.44;4969390;28;20042;-67
2021/09/27 02:52:15;;;;;;;0.30;0.30;;;;;;;9.06;88.23;99969.03;4985893;28;20050;-69
2021/09/27 02:54:46;;;;;;;0.30;0.30;;;;;;;9.00;88.68;99970.44;4970978;28;20065;-69
2021/09/27 02:57:39;;;;;;;0.30;0.30;;;;;;;9.05;88.15;99975.41;4969793;28;20078;-67
2021/09/27 03:00:41;;;;;;;0.30;0.30;;;;;;;9.03;88.34;99969.28;4969676;28;20046;-70
2021/09/27 03:03:18;;;;;;;0.30;0.30;;;;;;;9.04;88.69;99971.03;4934917;28;20095;-69
2021/09/27 03:06:22;;;;;;;0.30;0.30;;;;;;;9.01;88.38;99976.69;4970157;28;20295;-68
2021/09/27 03:09:23;;;;;;;0.30;0.30;;;;;;;9.04;88.36;99971.88;4961839;28;20103;-68
2021/09/27 03:12:12;;;;;;;0.30;0.30;;;;;;;9.05;88.26;99978.13;4974752;28;20097;-68
2021/09/27 03:14:56;;;;;;;0.30;0.30;;;;;;;9.04;88.42;99979.97;4973869;28;20414;-70
2021/09/27 03:17:31;;;;;;;0.30;0.30;;;;;;;9.11;88.03;99983.00;4973202;28;20113;-68
2021/09/27 03:20:19;;;;;;;0.30;0.30;;;;;;;9.05;88.03;99983.50;4989865;28;20081;-69
2021/09/27 03:23:06;;;;;;;0.30;0.30;;;;;;;9.05;87.92;99978.13;4989782;28;20091;-69
2021/09/27 03:26:02;;;;;;;0.30;0.30;;;;;;;9.08;87.95;99988.66;4974589;28;20093;-68
2021/09/27 03:29:03;;;;;;;0.40;0.40;;;;;;;8.99;87.70;99984.88;4974477;28;20116;-69
2021/09/27 03:31:54;;;;;;;0.30;0.30;;;;;;;9.05;88.07;99986.22;4957109;28;20418;-70
2021/09/27 03:34:44;;;;;;;0.30;0.30;;;;;;;9.04;87.26;99981.81;4974698;28;20047;-68
2021/09/27 03:37:24;;;;;;;0.30;0.30;;;;;;;8.94;86.88;99971.81;4972915;28;20381;-68
2021/09/27 03:40:23;;;;;;;0.30;0.30;;;;;;;8.90;86.84;99989.25;4956755;28;20046;-70
2021/09/27 03:43:03;;;;;;;0.30;0.30;;;;;;;8.98;86.99;99998.50;4974190;28;20047;-69
2021/09/27 03:45:52;;;;;;;0.38;0.38;;;;;;;8.92;87.18;99995.38;4988994;28;20055;-70
2021/09/27 03:48:27;;;;;;;0.30;0.30;;;;;;;8.98;87.26;99999.38;4956362;28;20125;-69
2021/09/27 03:50:54;;;;;;;0.30;0.30;;;;;;;8.97;87.09;99996.81;4972688;28;20146;-70
2021/09/27 03:53:30;;;;;;;0.40;0.40;;;;;;;8.93;86.42;100007.84;4972927;28;20134;-69
2021/09/27 03:56:05;;;;;;;0.30;0.30;;;;;;;8.98;86.63;100010.16;4972818;28;20043;-71
2021/09/27 03:58:41;;;;;;;0.30;0.30;;;;;;;9.03;86.52;100007.94;4956658;28;20057;-69
2021/09/27 04:01:16;;;;;;;0.30;0.30;;;;;;;9.01;86.10;100014.44;4972469;28;20165;-72
2021/09/27 04:03:56;;;;;;;0.30;0.30;;;;;;;9.04;85.85;100019.56;4972926;28;20043;-75
2021/09/27 04:06:36;;;;;;;0.30;0.30;;;;;;;9.01;85.88;100015.28;4973891;28;20055;-69
2021/09/27 04:09:21;;;;;;;0.30;0.30;;;;;;;8.98;85.11;100009.31;4972393;28;20419;-73
2021/09/27 04:11:47;;;;;;;0.40;0.40;;;;;;;8.98;84.80;100020.09;4940340;28;20050;-71
2021/09/27 04:14:29;;;;;;;0.30;0.30;;;;;;;8.99;84.34;100027.19;4956181;28;20418;-70
2021/09/27 04:17:28;;;;;;;0.30;0.30;;;;;;;8.94;84.36;100014.94;4971777;28;20379;-68
2021/09/27 04:20:02;;;;;;;0.30;0.30;;;;;;;9.05;84.05;100013.19;4988414;28;20475;-69
2021/09/27 04:22:33;;;;;;;0.30;0.30;;;;;;;9.00;84.03;100016.28;4973919;28;20097;-69
2021/09/27 04:25:03;;;;;;;0.30;0.30;;;;;;;9.05;83.65;100019.41;4972580;28;20141;-71
2021/09/27 04:27:39;;;;;;;0.30;0.30;;;;;;;9.06;83.24;100017.56;4972268;28;20042;-73
2021/09/27 04:30:32;;;;;;;0.30;0.30;;;;;;;9.05;83.20;100022.13;4988412;28;20186;-71
2021/09/27 04:33:36;;;;;;;0.30;0.30;;;;;;;9.10;82.25;100016.31;4972619;28;20055;-70
2021/09/27 04:36:13;;;;;;;0.30;0.30;;;;;;;9.08;82.77;100016.47;4989589;28;20103;-75
2021/09/27 04:38:39;;;;;;;0.30;0.30;;;;;;;9.10;82.65;100021.72;4989926;28;20046;-71
2021/09/27 04:41:11;;;;;;;0.40;0.40;;;;;;;9.08;83.19;100026.41;4974785;28;20218;-74
2021/09/27 04:44:04;;;;;;;0.38;0.38;;;;;;;9.00;83.05;100007.34;4989126;28;20046;-72
2021/09/27 04:46:42;;;;;;;0.30;0.30;;;;;;;9.04;82.61;100015.03;4987848;28;20508;-72
2021/09/27 04:49:21;;;;;;;0.30;0.30;;;;;;;9.16;83.37;100019.34;4988265;28;20055;-70
2021/09/27 04:52:06;;;;;;;0.30;0.30;;;;;;;9.15;82.38;100022.19;4987602;28;20065;-70
2021/09/27 04:55:22;;;;;;;0.30;0.30;;;;;;;9.14;82.31;100026.72;4973147;28;20489;-70
2021/09/27 04:57:51;;;;;;;0.32;0.32;;;;;;;9.17;82.07;100028.28;4971913;28;20059;-72
2021/09/27 05:00:23;;;;;;;0.30;0.30;;;;;;;9.22;82.32;100028.75;4988017;28;20094;-70
2021/09/27 05:03:10;;;;;;;0.30;0.30;;;;;;;9.23;82.55;100025.06;4988540;28;20129;-73
2021/09/27 05:05:56;;;;;;;0.30;0.30;;;;;;;9.27;82.17;100031.91;4987903;28;20294;-73
2021/09/27 05:08:31;;;;;;;0.30;0.30;;;;;;;9.31;82.36;100027.09;4987781;28;20199;-73
2021/09/27 05:11:28;;;;;;;0.30;0.30;;;;;;;9.35;81.93;100040.19;4987409;28;20057;-71
2021/09/27 05:13:59;;;;;;;0.40;0.40;;;;;;;9.39;81.97;100040.75;4971788;28;20122;-72
2021/09/27 05:16:33;;;;;;;0.40;0.40;;;;;;;9.44;82.08;100032.28;4972063;28;20197;-74
2021/09/27 05:19:03;;;;;;;0.40;0.40;;;;;;;9.37;81.97;100024.72;4988725;28;20087;-72
2021/09/27 05:21:40;;;;;;;0.30;0.30;;;;;;;9.33;82.20;100025.97;4988621;28;20055;-73
2021/09/27 05:24:24;;;;;;;0.40;0.40;;;;;;;9.54;81.48;100035.84;4989014;28;20117;-74
2021/09/27 05:27:28;;;;;;;0.30;0.30;;;;;;;9.65;80.78;100046.56;4988068;28;20054;-74
2021/09/27 05:29:59;;;;;;;0.30;0.30;;;;;;;9.64;80.89;100029.50;4964684;28;20047;-73
2021/09/27 05:32:35;;;;;;;0.30;0.30;;;;;;;9.75;80.52;100036.66;4987963;28;20050;-73
2021/09/27 05:35:19;;;;;;;0.40;0.40;;;;;;;9.70;80.65;100038.94;4971493;28;20050;-73
2021/09/27 05:38:09;;;;;;;0.30;0.30;;;;;;;9.78;80.52;100040.94;4971422;28;20077;-73
2021/09/27 05:40:52;;;;;;;0.40;0.40;;;;;;;9.89;79.72;100044.38;4986929;28;20047;-73
2021/09/27 05:44:08;;;;;;;0.40;0.40;;;;;;;9.95;79.54;100044.84;4972569;28;20475;-72
2021/09/27 05:46:40;;;;;;;0.40;0.40;;;;;;;9.96;79.09;100049.25;4953674;28;20154;-73
2021/09/27 05:49:09;;;;;;;0.40;0.40;;;;;;;9.94;79.48;100046.66;4967922;28;20161;-72
2021/09/27 05:51:49;;;;;;;0.40;0.40;;;;;;;10.06;79.32;100047.44;4955064;28;20473;-70
2021/09/27 05:54:22;;;;;;;0.40;0.40;;;;;;;10.08;78.57;100053.53;4988189;28;20050;-72
2021/09/27 05:57:02;;;;;;;0.40;0.40;;;;;;;10.21;78.43;100058.72;4972526;28;20487;-73
2021/09/27 05:59:38;;;;;;;0.40;0.40;;;;;;;10.40;78.22;100057.91;4987859;28;20329;-71
2021/09/27 06:02:22;;;;;;;0.30;0.30;;;;;;;10.42;77.78;100067.59;4972314;28;20051;-72
2021/09/27 06:05:07;;;;;;;0.30;0.30;;;;;;;10.17;78.32;100068.94;4988390;28;20047;-73
2021/09/27 06:07:47;;;;;;;0.30;0.30;;;;;;;10.31;78.49;100065.88;4990038;28;20053;-76
2021/09/27 06:10:22;;;;;;;0.30;0.30;;;;;;;10.23;78.78;100070.22;4990493;28;20274;-74
2021/09/27 06:13:05;;;;;;;0.30;0.30;;;;;;;10.26;78.82;100076.22;4974833;28;20131;-72
2021/09/27 06:15:43;;;;;;;0.40;0.40;;;;;;;10.26;79.04;100069.97;4976160;28;20047;-71
2021/09/27 06:18:36;;;;;;;0.40;0.40;;;;;;;10.22;78.47;100072.06;4975653;28;20058;-73
2021/09/27 06:21:20;;;;;;;0.30;0.30;;;;;;;10.09;78.91;100072.31;4991611;28;20055;-73
2021/09/27 06:24:05;;;;;;;0.40;0.40;;;;;;;10.29;77.77;100084.06;4974537;28;20054;-73
2021/09/27 06:26:32;;;;;;;0.30;0.30;;;;;;;10.23;78.53;100078.31;4990734;28;20039;-73
2021/09/27 06:29:08;;;;;;;0.30;0.30;;;;;;;10.12;78.58;100084.69;4957996;28;20142;-75
2021/09/27 06:31:46;;;;;;;0.32;0.32;;;;;;;10.06;78.75;100093.38;4989640;28;20043;-73
2021/09/27 06:34:29;;;;;;;0.30;0.30;;;;;;;10.08;78.35;100085.97;4958997;28;20047;-74
2021/09/27 06:37:00;;;;;;;0.30;0.30;;;;;;;10.06;78.74;100093.38;4959027;28;20087;-75
2021/09/27 06:39:27;;;;;;;0.40;0.40;;;;;;;9.98;78.98;100095.88;4975199;28;20129;-76
2021/09/27 06:41:54;;;;;;;0.40;0.40;;;;;;;10.13;78.82;100102.63;4973411;28;20050;-73
2021/09/27 06:44:22;;;;;;;0.30;0.30;;;;;;;10.12;78.81;100098.19;4974382;28;20440;-74
2021/09/27 06:46:48;;;;;;;0.30;0.30;;;;;;;10.07;78.43;100100.47;4975214;28;20035;-72
2021/09/27 06:49:14;;;;;;;0.32;0.32;;;;;;;10.10;78.89;100111.00;4990695;28;20053;-73
2021/09/27 06:51:44;;;;;;;0.30;0.30;;;;;;;10.10;79.35;100116.41;4955549;28;20049;-72
2021/09/27 06:54:15;;;;;;;0.30;0.30;;;;;;;10.18;78.77;100108.47;4987489;28;20046;-71
2021/09/27 06:56:42;;;;;;;0.30;0.30;;;;;;;10.08;79.05;100118.38;4970084;28;20049;-73
2021/09/27 06:59:08;;;;;;;0.40;0.40;;;;;;;10.09;79.26;100120.97;4986010;28;20475;-74
2021/09/27 07:01:34;;;;;;;0.30;0.30;;;;;;;10.15;78.79;100108.72;4953682;28;20158;-72
2021/09/27 07:04:00;;;;;;;0.30;0.30;;;;;;;10.12;78.65;100114.41;4969772;28;20046;-74
2021/09/27 07:06:26;;;;;;;0.30;0.30;;;;;;;10.06;78.92;100120.38;4937528;28;20055;-73
2021/09/27 07:08:53;;;;;;;0.30;0.30;;;;;;;10.07;79.34;100122.06;4971790;28;20046;-73
2021/09/27 07:11:19;;;;;;;0.40;0.40;;;;;;;10.07;79.20;100130.19;4985457;28;20110;-72
2021/09/27 07:13:45;;;;;;;0.30;0.30;;;;;;;10.10;78.63;100121.81;4985958;28;20078;-72
2021/09/27 07:16:11;;;;;;;0.30;0.30;;;;;;;10.13;78.84;100126.94;4985843;28;20050;-73
2021/09/27 07:18:37;;;;;;;0.30;0.30;;;;;;;10.22;78.39;100126.09;4969456;28;20102;-72
2021/09/27 07:21:08;;;;;;;0.30;0.30;;;;;;;10.12;78.34;100126.06;4969566;28;20125;-73
2021/09/27 07:23:38;;;;;;;0.40;0.40;;;;;;;10.28;78.02;100136.41;4985658;28;20150;-73
2021/09/27 07:26:15;;;;;;;0.35;0.35;;;;;;;10.34;77.60;100137.69;4969632;28;20050;-74
2021/09/27 07:28:43;;;;;;;0.30;0.30;;;;;;;10.32;77.95;100147.78;4971109;28;20061;-74
2021/09/27 07:31:09;;;;;;;0.30;0.30;;;;;;;10.32;78.08;100137.84;4985701;28;20082;-72
2021/09/27 07:33:36;;;;;;;0.30;0.30;;;;;;;10.26;78.26;100132.97;4969403;28;20520;-72
2021/09/27 07:36:04;;;;;;;0.40;0.40;;;;;;;10.31;77.56;100137.97;4921772;28;20039;-72
2021/09/27 07:38:31;;;;;;;0.30;0.30;;;;;;;10.38;77.98;100142.69;4968507;28;20051;-72
2021/09/27 07:40:58;;;;;;;0.40;0.40;;;;;;;10.62;76.86;100145.00;4969493;28;20055;-72
2021/09/27 07:43:25;;;;;;;0.40;0.40;;;;;;;10.83;76.26;100147.63;4970900;28;20117;-71
2021/09/27 07:45:50;;;;;;;0.40;0.40;;;;;;;10.93;75.97;100152.16;4969128;28;20386;-70
2021/09/27 07:48:16;;;;;;;0.30;0.30;;;;;;;10.92;76.22;100150.47;4968417;28;20413;-70
2021/09/27 07:50:46;;;;;;;0.30;0.30;;;;;;;10.88;75.95;100151.75;4969945;28;20046;-69
2021/09/27 07:53:13;;;;;;;0.30;0.30;;;;;;;10.66;76.84;100155.56;4972561;28;20113;-72
2021/09/27 07:55:39;;;;;;;0.32;0.32;;;;;;;10.68;77.34;100154.44;4989462;28;20065;-73
2021/09/27 07:58:05;;;;;;;0.40;0.40;;;;;;;10.69;76.86;100156.13;4940690;28;20043;-73
2021/09/27 08:00:31;;;;;;;0.40;0.40;;;;;;;10.76;76.53;100151.88;4956869;28;20054;-74
2021/09/27 08:02:57;;;;;;;0.30;0.30;;;;;;;10.86;75.39;100158.16;4974557;28;20077;-72
2021/09/27 08:05:26;;;;;;;0.40;0.40;;;;;;;10.92;75.47;100166.69;4956425;28;20046;-72
2021/09/27 08:07:53;;;;;;;0.35;0.35;;;;;;;10.79;76.19;100167.81;4972824;28;20054;-73
2021/09/27 08:10:20;;;;;;;0.30;0.30;;;;;;;10.93;75.40;100168.41;4956257;28;20051;-71
2021/09/27 08:12:47;;;;;;;0.30;0.30;;;;;;;11.02;74.66;100175.69;4972876;28;20038;-73
2021/09/27 08:15:17;;;;;;;0.30;0.30;;;;;;;10.87;75.20;100180.66;4973223;28;20055;-71
2021/09/27 08:17:45;;;;;;;0.40;0.40;;;;;;;10.83;75.00;100179.22;4973770;28;20503;-74
2021/09/27 08:20:13;;;;;;;0.40;0.40;;;;;;;10.96;74.44;100178.94;4990115;28;20431;-74
2021/09/27 08:22:40;;;;;;;0.40;0.40;;;;;;;10.98;74.54;100182.38;4975125;28;20114;-72
2021/09/27 08:25:07;;;;;;;0.30;0.30;;;;;;;10.96;74.83;100189.75;4974224;28;20533;-75
2021/09/27 08:27:33;;;;;;;0.30;0.30;;;;;;;10.82;75.23;100189.19;4990498;28;20065;-73
2021/09/27 08:29:59;;;;;;;0.30;0.30;;;;;;;10.62;75.10;100187.44;4973388;28;20039;-71
2021/09/27 08:32:25;;;;;;;0.30;0.30;;;;;;;10.54;76.05;100195.38;4972201;28;20046;-72
2021/09/27 08:34:53;;;;;;;0.30;0.30;;;;;;;10.57;75.93;100189.69;4988748;28;20129;-73
2021/09/27 08:37:20;;;;;;;0.30;0.30;;;;;;;10.54;75.76;100198.09;4974329;28;20081;-73
2021/09/27 08:39:48;;;;;;;0.30;0.30;;;;;;;10.47;75.88;100195.06;4988316;28;20050;-73
2021/09/27 08:42:36;;;;;;;0.30;0.30;;;;;;;10.36;76.05;100190.63;4972116;28;20101;-73
2021/09/27 08:45:18;;;;;;;0.30;0.30;;;;;;;10.31;76.46;100201.00;4971842;28;20136;-73
2021/09/27 08:47:56;;;;;;;0.30;0.30;;;;;;;10.24;77.38;100199.78;4972028;28;20046;-72
2021/09/27 08:50:51;;;;;;;0.30;0.30;;;;;;;10.14;78.04;100196.19;4973751;28;20046;-71
2021/09/27 08:53:37;;;;;;;0.30;0.30;;;;;;;10.13;77.82;100192.63;4927956;28;20050;-73
2021/09/27 08:56:21;;;;;;;0.30;0.30;;;;;;;10.18;77.80;100205.72;4988782;28;20053;-73
2021/09/27 08:58:51;;;;;;;0.30;0.30;;;;;;;10.14;78.22;100204.28;4939810;28;20047;-72
2021/09/27 09:01:22;;;;;;;0.40;0.40;;;;;;;10.21;77.83;100204.59;4973150;28;20085;-75
2021/09/27 09:03:51;;;;;;;0.30;0.30;;;;;;;10.08;78.02;100204.81;4954774;28;20529;-72
2021/09/27 09:06:31;;;;;;;0.30;0.30;;;;;;;10.11;77.90;100210.81;4987706;28;20047;-73
2021/09/27 09:09:05;;;;;;;0.30;0.30;;;;;;;10.18;78.04;100208.44;4973327;28;20067;-73
2021/09/27 09:11:39;;;;;;;0.30;0.30;;;;;;;10.11;77.75;100213.50;4971633;28;20055;-73
2021/09/27 09:14:20;;;;;;;0.30;0.30;;;;;;;10.05;77.68;100210.47;4988030;28;20411;-74
2021/09/27 09:16:48;;;;;;;0.40;0.40;;;;;;;10.13;77.51;100208.00;4970759;28;20074;-72
2021/09/27 09:19:18;;;;;;;0.40;0.40;;;;;;;10.11;77.41;100209.97;4971476;28;20048;-74
2021/09/27 09:21:51;;;;;;;0.30;0.30;;;;;;;10.15;77.24;100206.84;4970779;28;20047;-71
2021/09/27 09:24:39;;;;;;;0.40;0.40;;;;;;;10.18;77.66;100204.88;4954352;28;20342;-71
2021/09/27 09:27:08;;;;;;;0.40;0.40;;;;;;;10.27;77.04;100210.34;4970448;28;20113;-70
2021/09/27 09:29:37;;;;;;;0.30;0.30;;;;;;;10.37;76.79;100216.66;4954962;28;20073;-72
2021/09/27 09:32:27;;;;;;;0.40;0.40;;;;;;;10.48;76.62;100214.84;4970890;28;20134;-72
2021/09/27 09:35:23;;;;;;;0.40;0.40;;;;;;;10.48;76.23;100215.69;4971335;28;20047;-72
2021/09/27 09:38:02;;;;;;;0.40;0.40;;;;;;;10.54;76.22;100214.31;4970963;28;20085;-73
2021/09/27 09:40:51;;;;;;;0.40;0.40;;;;;;;10.44;76.84;100211.56;4954959;28;20065;-73
2021/09/27 09:43:28;;;;;;;0.30;0.30;;;;;;;10.47;76.62;100227.50;4970801;28;20142;-74
2021/09/27 09:46:30;;;;;;;0.30;0.30;;;;;;;10.40;77.23;100220.09;4987243;28;20053;-73
2021/09/27 09:49:01;;;;;;;0.30;0.30;;;;;;;10.28;78.38;100228.28;4970939;28;20078;-74
2021/09/27 09:51:38;;;;;;;0.30;0.30;;;;;;;10.18;78.50;100227.34;4970641;28;20039;-72
2021/09/27 09:54:15;;;;;;;0.30;0.30;;;;;;;10.18;78.30;100231.91;4970819;28;20102;-71
2021/09/27 09:56:47;;;;;;;0.30;0.30;;;;;;;10.23;78.45;100235.88;4938904;28;20053;-73
2021/09/27 09:59:17;;;;;;;0.30;0.30;;;;;;;10.15;78.30;100230.31;4954598;28;20109;-73
2021/09/27 10:01:43;;;;;;;0.30;0.30;;;;;;;10.01;78.50;100236.91;4971825;28;20101;-73
2021/09/27 10:04:11;;;;;;;0.30;0.30;;;;;;;10.00;78.81;100234.34;4954685;28;20690;-73
2021/09/27 10:06:49;;;;;;;0.30;0.30;;;;;;;9.97;79.32;100234.63;4954250;28;20201;-74
2021/09/27 10:09:29;;;;;;;0.30;0.30;;;;;;;9.96;79.36;100238.31;4939144;28;20421;-74
2021/09/27 10:11:58;;;;;;;0.38;0.38;;;;;;;10.05;79.19;100242.91;4971182;28;20042;-74
2021/09/27 10:14:34;;;;;;;0.40;0.40;;;;;;;10.12;79.01;100249.47;4972941;28;20093;-74
2021/09/27 10:17:03;;;;;;;0.30;0.30;;;;;;;10.19;78.68;100242.56;4938708;28;20051;-73
2021/09/27 10:19:32;;;;;;;0.40;0.40;;;;;;;10.27;77.95;100241.91;4986878;28;20047;-73
2021/09/27 10:22:01;;;;;;;0.30;0.30;;;;;;;10.45;77.28;100247.53;4971731;28;20109;-72
2021/09/27 10:24:42;;;;;;;0.40;0.40;;;;;;;10.53;76.94;100243.19;4986738;28;20154;-73
2021/09/27 10:27:44;;;;;;;0.40;0.40;;;;;;;10.59;76.79;100247.19;4970370;28;20142;-73
2021/09/27 10:30:12;;;;;;;0.40;0.40;;;;;;;10.57;76.99;100238.38;4955393;28;20070;-73
2021/09/27 10:32:45;;;;;;;0.40;0.40;;;;;;;10.63;76.90;100254.03;4954572;28;20050;-73
2021/09/27 10:35:30;;;;;;;0.30;0.30;;;;;;;10.56;76.67;100247.44;4970134;28;20069;-73
2021/09/27 10:38:06;;;;;;;0.40;0.40;;;;;;;10.49;76.82;100254.38;4986119;28;20519;-73
2021/09/27 10:40:33;;;;;;;0.40;0.40;;;;;;;10.59;76.59;100247.19;4970569;28;20042;-73
2021/09/27 10:43:00;;;;;;;0.40;0.40;;;;;;;10.77;75.79;100242.81;4986442;28;20520;-74
2021/09/27 10:45:28;;;;;;;0.40;0.40;;;;;;;10.82;75.06;100251.41;4938171;28;20593;-74
2021/09/27 10:47:56;;;;;;;0.50;0.50;;;;;;;11.25;74.21;100250.19;4970329;28;20039;-74
2021/09/27 10:50:26;;;;;;;0.50;0.50;;;;;;;11.97;71.12;100250.75;4970109;28;20146;-74
2021/09/27 10:52:51;;;;;;;0.40;0.40;;;;;;;11.99;70.48;100248.75;4970012;28;20060;-74
2021/09/27 10:55:26;;;;;;;0.50;0.50;;;;;;;12.11;69.95;100247.59;4971295;28;20133;-72
2021/09/27 10:58:05;;;;;;;0.40;0.40;;;;;;;12.08;69.92;100247.88;4970105;28;20051;-73
2021/09/27 11:00:51;;;;;;;0.40;0.40;;;;;;;12.06;69.13;100249.88;4969967;28;20047;-74
2021/09/27 11:03:29;;;;;;;0.40;0.40;;;;;;;12.02;69.27;100248.47;4969903;28;20074;-74
2021/09/27 11:06:19;;;;;;;0.40;0.40;;;;;;;11.99;69.26;100243.31;4938268;28;20051;-74
2021/09/27 11:08:45;;;;;;;0.40;0.40;;;;;;;12.04;69.07;100246.47;4969814;28;20045;-74
2021/09/27 11:11:40;;;;;;;0.40;0.40;;;;;;;11.97;69.35;100256.19;4985845;28;20400;-74
2021/09/27 11:14:22;;;;;;;0.40;0.40;;;;;;;12.14;68.85;100251.84;4970363;28;20057;-75
2021/09/27 11:17:06;;;;;;;0.40;0.40;;;;;;;12.09;69.73;100244.16;4987384;28;20039;-74
2021/09/27 11:19:32;;;;;;;0.40;0.40;;;;;;;12.27;69.02;100247.81;4986568;28;20062;-76
2021/09/27 11:22:33;;;;;;;0.40;0.40;;;;;;;12.21;69.07;100259.28;4970118;28;20050;-73
2021/09/27 11:25:20;;;;;;;0.40;0.40;;;;;;;12.19;69.55;100260.41;4945162;28;20050;-74
2021/09/27 11:28:13;;;;;;;0.30;0.30;;;;;;;12.14;69.37;100257.28;4971353;28;20054;-73
2021/09/27 11:31:05;;;;;;;0.40;0.40;;;;;;;12.05;69.26;100253.59;4941647;28;20077;-74
2021/09/27 11:33:31;;;;;;;0.30;0.30;;;;;;;11.90;70.43;100255.06;4957680;28;20078;-74
2021/09/27 11:36:04;;;;;;;0.30;0.30;;;;;;;11.85;70.32;100268.16;4989992;28;20082;-72
2021/09/27 11:38:37;;;;;;;0.40;0.30;;;;;;;11.67;70.82;100260.75;4973445;28;20050;-72
2021/09/27 11:41:24;;;;;;;0.30;0.30;;;;;;;11.62;71.13;100260.31;4941609;28;20054;-75
2021/09/27 11:43:56;;;;;;;0.30;0.30;;;;;;;11.39;71.75;100272.44;4973472;28;20046;-74
2021/09/27 11:46:33;;;;;;;0.30;0.30;;;;;;;11.17;73.37;100260.84;4989856;28;20151;-73
2021/09/27 11:49:24;;;;;;;0.30;0.30;;;;;;;11.11;73.71;100277.63;4957451;28;20074;-73
2021/09/27 11:52:05;;;;;;;0.30;0.30;;;;;;;10.85;74.88;100270.03;4972753;28;20098;-74
2021/09/27 11:54:53;;;;;;;0.30;0.30;;;;;;;10.66;76.85;100275.38;4989101;28;20059;-74
2021/09/27 11:57:28;;;;;;;0.40;0.40;;;;;;;10.57;78.76;100276.22;4989062;28;20050;-73
2021/09/27 12:00:06;;;;;;;0.30;0.30;;;;;;;10.47;79.23;100284.28;4973307;28;20526;-73
2021/09/27 12:02:44;;;;;;;0.40;0.40;;;;;;;10.43;80.10;100281.97;4974248;28;20039;-74
2021/09/27 12:05:19;;;;;;;0.30;0.30;;;;;;;10.34;79.74;100289.88;4988947;28;20051;-73
2021/09/27 12:08:25;;;;;;;0.30;0.30;;;;;;;10.31;80.22;100292.88;4956716;28;20047;-73
2021/09/27 12:11:15;;;;;;;0.40;0.40;;;;;;;10.18;80.63;100296.75;4940640;28;20457;-73
2021/09/27 12:13:47;;;;;;;0.50;0.50;;;;;;;10.36;80.32;100293.31;4972036;28;20042;-74
2021/09/27 12:16:26;;;;;;;0.40;0.40;;;;;;;10.30;80.05;100296.53;4972836;28;20046;-73